createdAt,value
2018-10-07T00:02:20.254Z,99974.55
2018-10-07T00:04:47.779Z,99978.84
2018-10-07T00:07:15.211Z,99979.33
2018-10-07T00:09:42.678Z,99976.01
2018-10-07T00:12:10.205Z,99983.27
2018-10-07T00:14:37.632Z,99987.91
2018-10-07T00:17:05.311Z,99984.61
2018-10-07T00:19:32.712Z,99983.16
2018-10-07T00:22:00.242Z,99985.33
2018-10-07T00:24:27.667Z,99995.70
2018-10-07T00:26:55.086Z,99996.52
2018-10-07T00:29:22.513Z,99995.70
2018-10-07T00:31:55.634Z,99998.00
2018-10-07T00:34:23.154Z,99993.67
2018-10-07T00:36:50.574Z,99997.50
2018-10-07T00:39:18.024Z,99998.95
2018-10-07T00:41:45.422Z,99998.82
2018-10-07T00:44:13.039Z,100007.09
2018-10-07T00:46:40.516Z,100003.73
2018-10-07T00:49:07.946Z,100007.09
2018-10-07T00:51:35.429Z,100000.94
2018-10-07T00:54:02.923Z,100004.49
2018-10-07T00:56:30.369Z,100013.20
2018-10-07T00:58:57.745Z,100013.64
2018-10-07T01:01:25.205Z,100016.92
2018-10-07T01:03:52.747Z,100018.52
2018-10-07T01:06:20.193Z,100015.33
2018-10-07T01:08:47.630Z,100010.34
2018-10-07T01:11:15.183Z,100006.38
2018-10-07T01:13:42.567Z,100015.77
2018-10-07T01:16:10.038Z,100020.94
2018-10-07T01:18:37.576Z,100019.00
2018-10-07T01:21:05.094Z,100023.83
2018-10-07T01:23:32.590Z,100023.44
2018-10-07T01:26:00.019Z,100018.77
2018-10-07T01:28:27.446Z,100020.86
2018-10-07T01:30:54.902Z,100029.07
2018-10-07T01:33:22.533Z,100033.46
2018-10-07T01:35:50.054Z,100034.06
2018-10-07T01:38:17.524Z,100035.77
2018-10-07T01:40:44.926Z,100035.12
2018-10-07T01:43:12.472Z,100037.00
2018-10-07T01:45:40.068Z,100032.91
2018-10-07T01:48:07.460Z,100038.41
2018-10-07T01:50:34.864Z,100033.17
2018-10-07T01:53:02.296Z,100033.55
2018-10-07T01:55:29.836Z,100030.14
2018-10-07T01:57:57.321Z,100029.42
2018-10-07T02:00:24.811Z,100032.57
2018-10-07T02:02:52.246Z,100031.25
2018-10-07T02:05:19.741Z,100031.25
2018-10-07T02:07:47.206Z,100032.36
2018-10-07T02:10:14.654Z,100033.94
2018-10-07T02:12:42.106Z,100039.64
2018-10-07T02:15:09.574Z,100042.62
2018-10-07T02:17:36.974Z,100046.19
2018-10-07T02:20:04.626Z,100041.11
2018-10-07T02:22:32.212Z,100033.33
2018-10-07T02:24:59.658Z,100040.83
2018-10-07T02:27:27.142Z,100037.97
2018-10-07T02:29:54.584Z,100040.77
2018-10-07T02:32:22.037Z,100042.86
2018-10-07T02:34:49.531Z,100047.54
2018-10-07T02:37:16.967Z,100053.92
2018-10-07T02:39:44.421Z,100052.05
2018-10-07T02:42:11.854Z,100059.87
2018-10-07T02:44:39.361Z,100060.22
2018-10-07T02:47:06.801Z,100061.33
2018-10-07T02:49:34.231Z,100068.39
2018-10-07T02:52:01.808Z,100062.02
2018-10-07T02:54:29.459Z,100063.97
2018-10-07T02:56:56.950Z,100065.13
2018-10-07T02:59:24.514Z,100064.52
2018-10-07T03:01:51.962Z,100063.89
2018-10-07T03:04:19.332Z,100063.67
2018-10-07T03:06:46.950Z,100056.52
2018-10-07T03:09:14.339Z,100060.10
2018-10-07T03:11:41.706Z,100062.73
2018-10-07T03:14:09.335Z,100063.84
2018-10-07T03:16:36.834Z,100068.98
2018-10-07T03:19:04.290Z,100068.41
2018-10-07T03:21:32.206Z,100066.97
2018-10-07T03:23:59.602Z,100066.34
2018-10-07T03:26:27.050Z,100060.28
2018-10-07T03:28:55.217Z,100078.81
2018-10-07T03:31:22.656Z,100109.38
2018-10-07T03:33:50.048Z,100117.23
2018-10-07T03:36:17.872Z,100112.37
2018-10-07T03:38:45.253Z,100117.53
2018-10-07T03:41:12.844Z,100118.30
2018-10-07T03:43:40.266Z,100110.86
2018-10-07T03:46:07.682Z,100117.24
2018-10-07T03:48:35.361Z,100115.71
2018-10-07T03:51:02.848Z,100107.49
2018-10-07T03:53:30.308Z,100112.52
2018-10-07T03:55:57.893Z,100116.91
2018-10-07T03:58:25.359Z,100116.48
2018-10-07T04:00:53.235Z,100110.94
2018-10-07T04:03:20.600Z,100119.88
2018-10-07T04:05:48.213Z,100121.83
2018-10-07T04:08:15.659Z,100120.38
2018-10-07T04:10:43.179Z,100123.62
2018-10-07T04:13:10.782Z,100132.37
2018-10-07T04:15:38.389Z,100130.50
2018-10-07T04:18:05.849Z,100133.55
2018-10-07T04:20:33.370Z,100147.28
2018-10-07T04:23:03.921Z,100145.77
2018-10-07T04:25:31.476Z,100136.90
2018-10-07T04:27:59.031Z,100158.70
2018-10-07T04:30:26.473Z,100152.77
2018-10-07T04:32:53.945Z,100154.50
2018-10-07T04:35:21.557Z,100173.69
2018-10-07T04:37:48.966Z,100157.64
2018-10-07T04:40:16.403Z,100165.15
2018-10-07T04:42:43.844Z,100166.50
2018-10-07T04:45:11.329Z,100161.22
2018-10-07T04:47:38.723Z,100161.03
2018-10-07T04:50:06.738Z,100165.91
2018-10-07T04:52:34.303Z,100165.27
2018-10-07T04:55:01.754Z,100178.34
2018-10-07T04:57:29.271Z,100174.80
2018-10-07T04:59:56.681Z,100175.98
2018-10-07T05:02:24.204Z,100179.79
2018-10-07T05:04:51.982Z,100182.14
2018-10-07T05:07:19.504Z,100182.95
2018-10-07T05:09:47.181Z,100185.38
2018-10-07T05:12:16.157Z,100186.78
2018-10-07T05:14:43.632Z,100199.53
2018-10-07T05:17:11.488Z,100195.85
2018-10-07T05:19:39.091Z,100202.47
2018-10-07T05:22:06.559Z,100210.31
2018-10-07T05:24:33.997Z,100215.02
2018-10-07T05:27:01.452Z,100215.54
2018-10-07T05:29:28.857Z,100213.02
2018-10-07T05:31:56.351Z,100219.44
2018-10-07T05:34:23.773Z,100222.43
2018-10-07T05:36:51.194Z,100221.51
2018-10-07T05:39:18.660Z,100221.78
2018-10-07T05:41:46.362Z,100234.47
2018-10-07T05:44:13.740Z,100233.77
2018-10-07T05:46:41.241Z,100244.50
2018-10-07T05:49:08.646Z,100244.83
2018-10-07T05:51:36.070Z,100247.87
2018-10-07T05:54:03.516Z,100251.88
2018-10-07T05:56:30.953Z,100263.09
2018-10-07T05:58:58.557Z,100273.59
2018-10-07T06:01:29.166Z,100279.12
2018-10-07T06:04:11.180Z,100282.52
2018-10-07T06:06:38.682Z,100295.69
2018-10-07T06:09:10.231Z,100297.38
2018-10-07T06:11:37.902Z,100300.64
2018-10-07T06:14:05.526Z,100302.52
2018-10-07T06:16:33.121Z,100308.98
2018-10-07T06:19:00.558Z,100315.06
2018-10-07T06:21:28.184Z,100321.37
2018-10-07T06:23:55.630Z,100327.33
2018-10-07T06:26:23.114Z,100330.70
2018-10-07T06:28:50.536Z,100337.73
2018-10-07T06:31:17.992Z,100340.81
2018-10-07T06:33:45.400Z,100341.02
2018-10-07T06:36:12.974Z,100351.67
2018-10-07T06:38:40.550Z,100355.46
2018-10-07T06:41:08.199Z,100356.38
2018-10-07T06:43:35.597Z,100357.53
2018-10-07T06:51:01.198Z,100381.09
2018-10-07T06:53:28.671Z,100375.68
2018-10-07T06:55:56.086Z,100376.28
2018-10-07T06:58:23.562Z,100370.84
2018-10-07T07:00:51.040Z,100384.39
2018-10-07T07:03:18.530Z,100383.19
2018-10-07T07:05:46.038Z,100385.98
2018-10-07T07:08:13.694Z,100396.86
2018-10-07T07:10:41.154Z,100402.42
2018-10-07T07:13:08.699Z,100401.23
2018-10-07T07:15:36.069Z,100409.97
2018-10-07T07:18:03.534Z,100414.25
2018-10-07T07:20:30.956Z,100409.84
2018-10-07T07:22:58.439Z,100412.58
2018-10-07T07:25:26.004Z,100413.77
2018-10-07T07:27:53.425Z,100417.81
2018-10-07T07:30:20.790Z,100418.87
2018-10-07T07:32:48.154Z,100422.28
2018-10-07T07:35:15.576Z,100429.36
2018-10-07T07:37:43.096Z,100428.49
2018-10-07T07:40:10.520Z,100432.47
2018-10-07T07:42:38.007Z,100434.67
2018-10-07T07:45:05.509Z,100433.16
2018-10-07T07:47:33.018Z,100434.84
2018-10-07T07:50:00.490Z,100447.39
2018-10-07T07:52:28.010Z,100451.45
2018-10-07T07:54:55.416Z,100454.30
2018-10-07T07:57:22.890Z,100452.25
2018-10-07T07:59:50.297Z,100444.89
2018-10-07T08:02:17.778Z,100461.72
2018-10-07T08:04:45.238Z,100464.84
2018-10-07T08:07:12.662Z,100470.14
2018-10-07T08:09:40.053Z,100476.92
2018-10-07T08:12:07.549Z,100480.84
2018-10-07T08:14:34.966Z,100475.97
2018-10-07T08:17:02.404Z,100480.58
2018-10-07T08:19:29.955Z,100485.33
2018-10-07T08:21:57.390Z,100489.86
2018-10-07T08:24:24.818Z,100497.18
2018-10-07T08:26:52.476Z,100495.78
2018-10-07T08:29:19.882Z,100504.10
2018-10-07T08:31:47.374Z,100514.23
2018-10-07T08:34:14.949Z,100522.25
2018-10-07T08:36:42.391Z,100513.37
2018-10-07T08:39:10.346Z,100509.23
2018-10-07T08:41:38.032Z,100514.61
2018-10-07T08:44:05.643Z,100518.26
2018-10-07T08:46:33.055Z,100520.34
2018-10-07T08:49:00.486Z,100514.59
2018-10-07T08:51:27.904Z,100518.09
2018-10-07T08:53:55.366Z,100527.45
2018-10-07T08:56:23.179Z,100528.55
2018-10-07T08:58:50.928Z,100529.06
2018-10-07T09:01:18.406Z,100531.06
2018-10-07T09:03:46.187Z,100533.15
2018-10-07T09:06:13.792Z,100540.84
2018-10-07T09:08:41.441Z,100545.89
2018-10-07T09:11:09.351Z,100567.47
2018-10-07T09:13:37.086Z,100565.19
2018-10-07T09:16:05.061Z,100572.04
2018-10-07T09:18:33.150Z,100571.70
2018-10-07T09:21:00.884Z,100580.30
2018-10-07T09:23:28.706Z,100578.64
2018-10-07T09:25:56.436Z,100578.44
2018-10-07T09:28:24.320Z,100587.22
2018-10-07T09:30:51.865Z,100592.58
2018-10-07T09:33:19.562Z,100596.48
2018-10-07T09:35:47.082Z,100605.75
2018-10-07T09:38:14.515Z,100606.69
2018-10-07T09:40:41.964Z,100604.17
2018-10-07T09:43:09.379Z,100611.50
2018-10-07T09:45:37.310Z,100617.14
2018-10-07T09:48:04.869Z,100623.80
2018-10-07T09:50:32.339Z,100628.59
2018-10-07T09:52:59.764Z,100626.06
2018-10-07T09:55:27.199Z,100626.73
2018-10-07T09:57:54.717Z,100633.44
2018-10-07T10:00:27.709Z,100639.61
2018-10-07T10:02:55.465Z,100638.52
2018-10-07T10:05:22.900Z,100645.75
2018-10-07T10:07:50.441Z,100650.44
2018-10-07T10:10:17.909Z,100642.48
2018-10-07T10:12:45.417Z,100644.66
2018-10-07T10:15:12.973Z,100650.72
2018-10-07T10:17:44.638Z,100637.13
2018-10-07T10:20:12.349Z,100652.02
2018-10-07T10:24:55.694Z,100640.92
2018-10-07T10:27:34.462Z,100644.47
2018-10-07T10:30:06.781Z,100643.08
2018-10-07T10:33:55.810Z,100651.00
2018-10-07T10:36:30.522Z,100651.06
2018-10-07T10:39:06.396Z,100668.05
2018-10-07T10:41:45.487Z,100673.91
2018-10-07T10:44:20.666Z,100672.38
2018-10-07T10:47:04.806Z,100665.17
2018-10-07T10:49:39.493Z,100659.97
2018-10-07T10:52:14.486Z,100667.96
2018-10-07T10:54:51.958Z,100656.05
2018-10-07T10:57:29.237Z,100659.77
2018-10-07T11:00:02.706Z,100656.70
2018-10-07T11:04:43.737Z,100663.94
2018-10-07T11:07:16.988Z,100658.80
2018-10-07T11:10:53.233Z,100662.50
2018-10-07T11:13:31.568Z,100670.23
2018-10-07T11:16:24.374Z,100670.31
2018-10-07T11:19:25.987Z,100669.62
2018-10-07T11:24:13.967Z,100663.93
2018-10-07T11:26:54.685Z,100645.52
2018-10-07T11:29:59.547Z,100648.31
2018-10-07T11:32:35.594Z,100640.87
2018-10-07T11:35:17.632Z,100642.59
2018-10-07T11:38:03.476Z,100650.54
2018-10-07T11:40:42.534Z,100657.36
2018-10-07T11:43:18.814Z,100663.34
2018-10-07T11:45:54.359Z,100670.75
2018-10-07T11:48:26.134Z,100669.14
2018-10-07T11:51:05.338Z,100663.34
2018-10-07T11:53:36.326Z,100659.61
2018-10-07T11:56:03.752Z,100663.69
2018-10-07T11:58:31.247Z,100675.62
2018-10-07T12:00:58.876Z,100662.50
2018-10-07T12:03:26.384Z,100664.91
2018-10-07T12:05:53.786Z,100660.27
2018-10-07T12:08:21.649Z,100658.42
2018-10-07T12:10:49.165Z,100665.49
2018-10-07T12:13:16.585Z,100666.38
2018-10-07T12:15:44.239Z,100667.91
2018-10-07T12:18:11.880Z,100670.16
2018-10-07T12:20:39.265Z,100667.86
2018-10-07T12:23:06.927Z,100681.34
2018-10-07T12:25:34.516Z,100678.63
2018-10-07T12:28:02.128Z,100687.66
2018-10-07T12:30:29.749Z,100681.14
2018-10-07T12:32:57.308Z,100701.67
2018-10-07T12:35:24.931Z,100692.58
2018-10-07T12:37:52.721Z,100700.57
2018-10-07T12:40:20.236Z,100711.63
2018-10-07T12:42:48.487Z,100710.52
2018-10-07T12:45:15.951Z,100705.05
2018-10-07T12:47:43.360Z,100712.15
2018-10-07T12:50:10.982Z,100714.64
2018-10-07T12:52:39.528Z,100709.91
2018-10-07T12:55:07.294Z,100723.97
2018-10-07T12:57:35.050Z,100708.58
2018-10-07T13:00:02.779Z,100735.61
2018-10-07T13:02:30.342Z,100734.97
2018-10-07T13:04:57.803Z,100733.77
2018-10-07T13:07:25.465Z,100733.47
2018-10-07T13:09:53.134Z,100735.79
2018-10-07T13:12:20.862Z,100737.61
2018-10-07T13:14:48.425Z,100732.13
2018-10-07T13:17:15.981Z,100738.89
2018-10-07T13:19:43.446Z,100746.71
2018-10-07T13:22:11.080Z,100745.98
2018-10-07T13:24:38.581Z,100755.34
2018-10-07T13:27:06.266Z,100765.36
2018-10-07T13:29:33.824Z,100757.35
2018-10-07T13:32:01.350Z,100761.86
2018-10-07T13:34:28.776Z,100770.69
2018-10-07T13:36:56.234Z,100778.87
2018-10-07T13:39:23.858Z,100783.54
2018-10-07T13:41:51.468Z,100775.87
2018-10-07T13:44:18.970Z,100779.70
2018-10-07T13:46:46.481Z,100778.70
2018-10-07T13:49:14.028Z,100776.66
2018-10-07T13:51:41.567Z,100778.42
2018-10-07T13:54:08.966Z,100788.66
2018-10-07T13:56:36.419Z,100785.45
2018-10-07T13:59:03.913Z,100786.08
2018-10-07T14:01:31.402Z,100779.83
2018-10-07T14:03:59.269Z,100787.76
2018-10-07T14:06:26.702Z,100794.09
2018-10-07T14:08:54.326Z,100793.36
2018-10-07T14:11:21.813Z,100812.70
2018-10-07T14:13:49.312Z,100804.36
2018-10-07T14:16:16.766Z,100805.31
2018-10-07T14:18:44.243Z,100816.98
2018-10-07T14:21:11.824Z,100824.06
2018-10-07T14:23:39.376Z,100839.02
2018-10-07T14:26:07.033Z,100830.91
2018-10-07T14:28:34.622Z,100829.95
2018-10-07T14:31:02.239Z,100835.80
2018-10-07T14:33:29.736Z,100829.48
2018-10-07T14:35:57.336Z,100826.07
2018-10-07T14:38:24.817Z,100833.12
2018-10-07T14:40:52.582Z,100845.98
2018-10-07T14:43:20.176Z,100839.99
2018-10-07T14:45:47.878Z,100842.05
2018-10-07T14:48:15.422Z,100838.20
2018-10-07T14:50:43.047Z,100851.95
2018-10-07T14:53:10.537Z,100835.02
2018-10-07T14:55:38.044Z,100848.69
2018-10-07T14:58:05.842Z,100846.52
2018-10-07T15:00:33.338Z,100842.35
2018-10-07T15:03:00.758Z,100847.19
2018-10-07T15:05:28.221Z,100841.85
2018-10-07T15:07:55.753Z,100839.09
2018-10-07T15:10:23.210Z,100832.85
2018-10-07T15:12:50.736Z,100839.08
2018-10-07T15:15:18.333Z,100832.20
2018-10-07T15:17:45.745Z,100830.37
2018-10-07T15:20:13.238Z,100834.86
2018-10-07T15:22:40.746Z,100825.42
2018-10-07T15:25:08.357Z,100821.60
2018-10-07T15:27:35.858Z,100807.46
2018-10-07T15:30:03.416Z,100811.31
2018-10-07T15:32:30.950Z,100809.47
2018-10-07T15:35:00.410Z,100814.10
2018-10-07T15:37:27.886Z,100822.19
2018-10-07T15:39:55.314Z,100833.52
2018-10-07T15:42:22.842Z,100820.17
2018-10-07T15:44:50.350Z,100817.40
2018-10-07T15:47:17.807Z,100817.48
2018-10-07T15:49:45.310Z,100825.51
2018-10-07T15:52:12.805Z,100833.55
2018-10-07T15:54:40.227Z,100829.02
2018-10-07T15:57:07.783Z,100830.07
2018-10-07T15:59:35.358Z,100826.43
2018-10-07T16:02:02.852Z,100829.03
2018-10-07T16:04:30.384Z,100828.38
2018-10-07T16:06:57.854Z,100833.89
2018-10-07T16:09:25.279Z,100827.55
2018-10-07T16:11:52.784Z,100840.72
2018-10-07T16:14:20.344Z,100845.88
2018-10-07T16:16:47.830Z,100849.53
2018-10-07T16:19:15.318Z,100856.32
2018-10-07T16:21:42.902Z,100859.76
2018-10-07T16:24:10.505Z,100867.86
2018-10-07T16:26:38.292Z,100869.25
2018-10-07T16:29:05.760Z,100867.76
2018-10-07T16:31:33.374Z,100876.97
2018-10-07T16:34:00.962Z,100876.91
2018-10-07T16:36:28.526Z,100883.78
2018-10-07T16:38:56.088Z,100886.36
2018-10-07T16:41:23.761Z,100883.48
2018-10-07T16:43:51.262Z,100900.38
2018-10-07T16:46:18.727Z,100903.69
2018-10-07T16:48:46.253Z,100898.80
2018-10-07T16:51:13.860Z,100907.76
2018-10-07T16:53:41.492Z,100910.53
2018-10-07T16:56:09.144Z,100904.09
2018-10-07T16:58:36.888Z,100919.33
2018-10-07T17:01:04.414Z,100916.38
2018-10-07T17:03:32.056Z,100932.76
2018-10-07T17:05:59.553Z,100914.23
2018-10-07T17:08:27.269Z,100924.50
2018-10-07T17:10:54.887Z,100928.50
2018-10-07T17:13:22.467Z,100936.91
2018-10-07T17:15:50.094Z,100929.06
2018-10-07T17:18:17.684Z,100934.66
2018-10-07T17:20:45.270Z,100929.09
2018-10-07T17:23:12.795Z,100937.75
2018-10-07T17:25:40.450Z,100937.63
2018-10-07T17:28:07.936Z,100949.97
2018-10-07T17:30:35.518Z,100948.60
2018-10-07T17:33:03.056Z,100954.83
2018-10-07T17:35:30.623Z,100965.61
2018-10-07T17:37:58.036Z,100974.25
2018-10-07T17:40:25.538Z,100975.77
2018-10-07T17:42:53.346Z,100974.36
2018-10-07T17:45:20.978Z,100979.51
2018-10-07T17:47:48.415Z,100982.78
2018-10-07T17:50:15.906Z,100991.47
2018-10-07T17:52:43.422Z,100990.89
2018-10-07T17:55:11.066Z,100994.52
2018-10-07T17:57:38.510Z,100992.73
2018-10-07T18:00:05.994Z,100997.31
2018-10-07T18:02:33.559Z,101013.75
2018-10-07T18:05:01.038Z,100996.69
2018-10-07T18:07:28.643Z,101006.25
2018-10-07T18:09:56.151Z,101011.22
2018-10-07T18:12:23.801Z,101009.66
2018-10-07T18:14:51.263Z,101014.86
2018-10-07T18:17:18.774Z,101017.15
2018-10-07T18:19:46.252Z,101019.44
2018-10-07T18:22:13.772Z,101009.87
2018-10-07T18:24:41.280Z,101019.25
2018-10-07T18:27:08.802Z,101016.08
2018-10-07T18:29:36.362Z,101021.41
2018-10-07T18:32:03.950Z,101024.65
2018-10-07T18:34:31.565Z,101018.02
2018-10-07T18:36:59.040Z,101029.10
2018-10-07T18:39:26.518Z,101025.88
2018-10-07T18:41:54.031Z,101026.82
2018-10-07T18:44:21.715Z,101022.27
2018-10-07T18:46:49.338Z,101029.23
2018-10-07T18:49:16.768Z,101033.45
2018-10-07T18:51:44.289Z,101030.44
2018-10-07T18:54:11.799Z,101024.77
2018-10-07T18:56:39.279Z,101034.17
2018-10-07T18:59:06.832Z,101034.89
2018-10-07T19:01:34.413Z,101040.64
2018-10-07T19:04:01.890Z,101040.04
2018-10-07T19:06:29.351Z,101039.55
2018-10-07T19:08:56.810Z,101041.34
2018-10-07T19:11:24.472Z,101047.70
2018-10-07T19:13:52.098Z,101051.58
2018-10-07T19:16:19.610Z,101051.58
2018-10-07T19:18:47.143Z,101063.19
2018-10-07T19:21:14.723Z,101065.12
2018-10-07T19:23:42.147Z,101067.55
2018-10-07T19:26:09.764Z,101058.52
2018-10-07T19:28:37.256Z,101065.11
2018-10-07T19:31:04.975Z,101069.18
2018-10-07T19:33:32.498Z,101068.21
2018-10-07T19:35:59.970Z,101067.35
2018-10-07T19:38:27.879Z,101070.56
2018-10-07T19:40:55.430Z,101074.77
2018-10-07T19:43:22.953Z,101078.02
2018-10-07T19:45:50.432Z,101080.91
2018-10-07T19:48:17.881Z,101088.48
2018-10-07T19:50:45.301Z,101083.06
2018-10-07T19:53:13.039Z,101084.73
2018-10-07T19:55:40.541Z,101079.19
2018-10-07T19:58:08.077Z,101076.80
2018-10-07T20:00:35.699Z,101075.83
2018-10-07T20:03:03.218Z,101073.64
2018-10-07T20:05:30.758Z,101081.11
2018-10-07T20:07:58.210Z,101077.00
2018-10-07T20:10:25.686Z,101075.31
2018-10-07T20:12:53.078Z,101087.29
2018-10-07T20:15:20.558Z,101081.80
2018-10-07T20:17:48.202Z,101092.36
2018-10-07T20:20:15.674Z,101094.87
2018-10-07T20:22:43.292Z,101093.29
2018-10-07T20:25:10.842Z,101099.19
2018-10-07T20:27:38.420Z,101101.21
2018-10-07T20:30:06.043Z,101105.66
2018-10-07T20:32:33.529Z,101105.92
2018-10-07T20:35:01.006Z,101109.64
2018-10-07T20:37:28.516Z,101116.14
2018-10-07T20:39:55.933Z,101119.03
2018-10-07T20:42:23.454Z,101115.95
2018-10-07T20:44:50.967Z,101118.34
2018-10-07T20:47:18.678Z,101124.23
2018-10-07T20:49:46.179Z,101123.02
2018-10-07T20:52:13.745Z,101123.07
2018-10-07T20:54:41.232Z,101129.94
2018-10-07T20:57:08.787Z,101126.59
2018-10-07T20:59:36.829Z,101125.43
2018-10-07T21:02:04.363Z,101120.86
2018-10-07T21:04:31.811Z,101112.22
2018-10-07T21:06:59.323Z,101115.58
2018-10-07T21:09:26.747Z,101123.55
2018-10-07T21:11:54.308Z,101122.33
2018-10-07T21:14:21.771Z,101129.91
2018-10-07T21:16:49.240Z,101126.55
2018-10-07T21:19:16.674Z,101130.62
2018-10-07T21:21:44.234Z,101126.66
2018-10-07T21:24:11.892Z,101131.48
2018-10-07T21:26:39.451Z,101130.77
2018-10-07T21:29:06.972Z,101130.27
2018-10-07T21:31:34.531Z,101124.05
2018-10-07T21:34:02.131Z,101134.63
2018-10-07T21:36:29.636Z,101133.77
2018-10-07T21:38:57.140Z,101139.30
2018-10-07T21:41:24.663Z,101135.84
2018-10-07T21:43:52.169Z,101134.12
2018-10-07T21:46:19.625Z,101134.02
2018-10-07T21:48:47.113Z,101131.73
2018-10-07T21:51:14.608Z,101126.33
2018-10-07T21:53:42.199Z,101131.38
2018-10-07T21:56:09.804Z,101135.94
2018-10-07T21:58:37.295Z,101133.05
2018-10-07T22:01:04.742Z,101131.73
2018-10-07T22:03:32.344Z,101131.73
2018-10-07T22:05:59.776Z,101134.16
2018-10-07T22:08:27.442Z,101135.48
2018-10-07T22:10:54.878Z,101126.94
2018-10-07T22:13:22.450Z,101132.83
2018-10-07T22:15:49.928Z,101138.23
2018-10-07T22:18:17.448Z,101128.02
2018-10-07T22:20:44.876Z,101130.05
2018-10-07T22:23:12.310Z,101131.27
2018-10-07T22:25:39.758Z,101118.62
2018-10-07T22:28:07.396Z,101121.37
2018-10-07T22:30:34.826Z,101119.55
2018-10-07T22:33:02.265Z,101114.61
2018-10-07T22:35:29.717Z,101113.12
2018-10-07T22:37:57.280Z,101111.89
2018-10-07T22:40:24.744Z,101111.98
2018-10-07T22:42:52.148Z,101112.98
2018-10-07T22:45:19.584Z,101114.27
2018-10-07T22:47:47.058Z,101114.48
2018-10-07T22:50:14.625Z,101109.95
2018-10-07T22:52:42.050Z,101111.59
2018-10-07T22:55:09.500Z,101115.88
2018-10-07T22:57:37.114Z,101110.67
2018-10-07T23:00:05.060Z,101110.16
2018-10-07T23:02:32.526Z,101109.77
2018-10-07T23:04:59.950Z,101108.38
2018-10-07T23:07:27.434Z,101110.77
2018-10-07T23:09:54.886Z,101112.77
2018-10-07T23:12:22.314Z,101117.81
2018-10-07T23:14:49.774Z,101115.02
2018-10-07T23:17:17.181Z,101114.75
2018-10-07T23:19:44.605Z,101114.63
2018-10-07T23:22:12.154Z,101119.83
2018-10-07T23:24:39.530Z,101120.19
2018-10-07T23:27:07.034Z,101118.73
2018-10-07T23:29:34.468Z,101119.02
2018-10-07T23:32:01.918Z,101123.53
2018-10-07T23:34:29.354Z,101124.75
2018-10-07T23:36:56.923Z,101119.08
2018-10-07T23:39:24.820Z,101119.63
2018-10-07T23:41:52.706Z,101110.77
2018-10-07T23:44:20.148Z,101109.85
2018-10-07T23:46:47.575Z,101111.46
2018-10-07T23:49:15.031Z,101108.83
2018-10-07T23:51:42.675Z,101113.59
2018-10-07T23:54:10.030Z,101104.83
2018-10-07T23:56:37.486Z,101106.38
2018-10-07T23:59:04.949Z,101103.84
